sensor_id;sensor_type;location;lat;lon;timestamp;P1;durP1;ratioP1;P2;durP2;ratioP2
25111;SDS011;13092;51.996;4.458;2023-10-09T00:00:08;48.35;;;44.28;;
25111;SDS011;13092;51.996;4.458;2023-10-09T00:02:56;45.70;;;41.75;;
25111;SDS011;13092;51.996;4.458;2023-10-09T00:05:27;46.97;;;42.92;;
25111;SDS011;13092;51.996;4.458;2023-10-09T00:08:05;46.47;;;42.50;;
25111;SDS011;13092;51.996;4.458;2023-10-09T00:10:36;46.85;;;42.92;;
25111;SDS011;13092;51.996;4.458;2023-10-09T00:13:12;47.95;;;43.78;;
25111;SDS011;13092;51.996;4.458;2023-10-09T00:15:41;47.22;;;43.22;;
25111;SDS011;13092;51.996;4.458;2023-10-09T00:18:10;48.20;;;44.30;;
25111;SDS011;13092;51.996;4.458;2023-10-09T00:20:39;47.95;;;43.85;;
25111;SDS011;13092;51.996;4.458;2023-10-09T00:23:09;47.92;;;43.92;;
25111;SDS011;13092;51.996;4.458;2023-10-09T00:25:48;48.45;;;44.20;;
25111;SDS011;13092;51.996;4.458;2023-10-09T00:28:34;47.45;;;43.55;;
25111;SDS011;13092;51.996;4.458;2023-10-09T00:31:05;47.90;;;43.58;;
25111;SDS011;13092;51.996;4.458;2023-10-09T00:33:41;46.30;;;42.47;;
25111;SDS011;13092;51.996;4.458;2023-10-09T00:36:09;46.90;;;42.90;;
25111;SDS011;13092;51.996;4.458;2023-10-09T00:38:46;47.97;;;43.55;;
25111;SDS011;13092;51.996;4.458;2023-10-09T00:41:17;45.60;;;41.60;;
25111;SDS011;13092;51.996;4.458;2023-10-09T00:43:51;47.95;;;43.20;;
25111;SDS011;13092;51.996;4.458;2023-10-09T00:46:21;47.42;;;43.22;;
25111;SDS011;13092;51.996;4.458;2023-10-09T00:48:54;46.13;;;41.85;;
25111;SDS011;13092;51.996;4.458;2023-10-09T00:51:27;46.60;;;42.40;;
25111;SDS011;13092;51.996;4.458;2023-10-09T00:54:02;46.75;;;42.45;;
25111;SDS011;13092;51.996;4.458;2023-10-09T00:56:41;44.78;;;40.90;;
25111;SDS011;13092;51.996;4.458;2023-10-09T00:59:18;47.63;;;43.28;;
25111;SDS011;13092;51.996;4.458;2023-10-09T01:01:49;45.72;;;41.92;;
25111;SDS011;13092;51.996;4.458;2023-10-09T01:04:24;47.97;;;43.33;;
25111;SDS011;13092;51.996;4.458;2023-10-09T01:06:56;45.88;;;41.75;;
25111;SDS011;13092;51.996;4.458;2023-10-09T01:09:41;46.38;;;42.28;;
25111;SDS011;13092;51.996;4.458;2023-10-09T01:12:11;47.35;;;43.05;;
25111;SDS011;13092;51.996;4.458;2023-10-09T01:14:44;47.20;;;43.00;;
25111;SDS011;13092;51.996;4.458;2023-10-09T01:17:20;46.47;;;42.28;;
25111;SDS011;13092;51.996;4.458;2023-10-09T01:20:03;47.22;;;42.72;;
25111;SDS011;13092;51.996;4.458;2023-10-09T01:22:41;47.50;;;43.30;;
25111;SDS011;13092;51.996;4.458;2023-10-09T01:25:11;46.28;;;41.95;;
25111;SDS011;13092;51.996;4.458;2023-10-09T01:27:39;46.40;;;42.03;;
25111;SDS011;13092;51.996;4.458;2023-10-09T01:30:10;45.70;;;41.72;;
25111;SDS011;13092;51.996;4.458;2023-10-09T01:32:40;45.83;;;41.83;;
25111;SDS011;13092;51.996;4.458;2023-10-09T01:35:10;44.38;;;40.35;;
25111;SDS011;13092;51.996;4.458;2023-10-09T01:37:47;44.97;;;40.90;;
25111;SDS011;13092;51.996;4.458;2023-10-09T01:40:19;45.42;;;41.33;;
25111;SDS011;13092;51.996;4.458;2023-10-09T01:42:54;46.70;;;42.50;;
25111;SDS011;13092;51.996;4.458;2023-10-09T01:45:21;45.78;;;41.58;;
25111;SDS011;13092;51.996;4.458;2023-10-09T01:47:56;45.88;;;41.95;;
25111;SDS011;13092;51.996;4.458;2023-10-09T01:50:24;44.83;;;40.75;;
25111;SDS011;13092;51.996;4.458;2023-10-09T01:52:58;44.55;;;40.63;;
25111;SDS011;13092;51.996;4.458;2023-10-09T01:55:29;45.97;;;41.67;;
25111;SDS011;13092;51.996;4.458;2023-10-09T01:58:01;46.13;;;41.80;;
25111;SDS011;13092;51.996;4.458;2023-10-09T02:00:32;46.42;;;42.13;;
25111;SDS011;13092;51.996;4.458;2023-10-09T02:03:10;44.80;;;40.88;;
25111;SDS011;13092;51.996;4.458;2023-10-09T02:05:50;44.42;;;40.33;;
25111;SDS011;13092;51.996;4.458;2023-10-09T02:08:19;45.15;;;40.92;;
25111;SDS011;13092;51.996;4.458;2023-10-09T02:10:54;44.92;;;40.65;;
25111;SDS011;13092;51.996;4.458;2023-10-09T02:13:23;43.28;;;39.38;;
25111;SDS011;13092;51.996;4.458;2023-10-09T02:15:55;43.20;;;39.40;;
25111;SDS011;13092;51.996;4.458;2023-10-09T02:18:39;45.70;;;41.47;;
25111;SDS011;13092;51.996;4.458;2023-10-09T02:21:19;44.33;;;40.20;;
25111;SDS011;13092;51.996;4.458;2023-10-09T02:24:00;43.17;;;39.10;;
25111;SDS011;13092;51.996;4.458;2023-10-09T02:26:35;43.58;;;39.33;;
25111;SDS011;13092;51.996;4.458;2023-10-09T02:29:32;44.80;;;40.70;;
25111;SDS011;13092;51.996;4.458;2023-10-09T02:32:05;44.10;;;40.20;;
25111;SDS011;13092;51.996;4.458;2023-10-09T02:34:52;44.13;;;39.97;;
25111;SDS011;13092;51.996;4.458;2023-10-09T02:37:20;43.40;;;39.25;;
25111;SDS011;13092;51.996;4.458;2023-10-09T02:39:51;43.47;;;39.50;;
25111;SDS011;13092;51.996;4.458;2023-10-09T02:42:21;44.45;;;40.45;;
25111;SDS011;13092;51.996;4.458;2023-10-09T02:44:54;44.35;;;39.97;;
25111;SDS011;13092;51.996;4.458;2023-10-09T02:47:26;43.72;;;39.67;;
25111;SDS011;13092;51.996;4.458;2023-10-09T02:49:58;45.30;;;41.08;;
25111;SDS011;13092;51.996;4.458;2023-10-09T02:52:33;43.70;;;39.50;;
25111;SDS011;13092;51.996;4.458;2023-10-09T02:55:07;45.67;;;41.35;;
25111;SDS011;13092;51.996;4.458;2023-10-09T02:57:41;43.67;;;39.67;;
25111;SDS011;13092;51.996;4.458;2023-10-09T03:00:12;45.58;;;41.03;;
25111;SDS011;13092;51.996;4.458;2023-10-09T03:02:46;43.83;;;39.47;;
25111;SDS011;13092;51.996;4.458;2023-10-09T03:05:16;44.25;;;40.25;;
25111;SDS011;13092;51.996;4.458;2023-10-09T03:07:47;44.55;;;40.53;;
25111;SDS011;13092;51.996;4.458;2023-10-09T03:10:18;45.42;;;40.80;;
25111;SDS011;13092;51.996;4.458;2023-10-09T03:12:48;43.78;;;39.78;;
25111;SDS011;13092;51.996;4.458;2023-10-09T03:15:19;44.63;;;40.25;;
25111;SDS011;13092;51.996;4.458;2023-10-09T03:17:48;43.53;;;39.63;;
25111;SDS011;13092;51.996;4.458;2023-10-09T03:20:16;44.65;;;40.50;;
25111;SDS011;13092;51.996;4.458;2023-10-09T03:22:45;44.92;;;40.40;;
25111;SDS011;13092;51.996;4.458;2023-10-09T03:25:14;42.83;;;39.03;;
25111;SDS011;13092;51.996;4.458;2023-10-09T03:27:44;43.90;;;39.85;;
25111;SDS011;13092;51.996;4.458;2023-10-09T03:30:14;44.17;;;40.13;;
25111;SDS011;13092;51.996;4.458;2023-10-09T03:32:49;44.55;;;40.25;;
25111;SDS011;13092;51.996;4.458;2023-10-09T03:35:18;43.85;;;39.95;;
25111;SDS011;13092;51.996;4.458;2023-10-09T03:37:52;44.30;;;40.17;;
25111;SDS011;13092;51.996;4.458;2023-10-09T03:40:23;44.45;;;40.08;;
25111;SDS011;13092;51.996;4.458;2023-10-09T03:42:51;44.33;;;40.03;;
25111;SDS011;13092;51.996;4.458;2023-10-09T03:45:21;44.80;;;40.38;;
25111;SDS011;13092;51.996;4.458;2023-10-09T03:47:53;43.83;;;39.83;;
25111;SDS011;13092;51.996;4.458;2023-10-09T03:50:31;43.28;;;39.38;;
25111;SDS011;13092;51.996;4.458;2023-10-09T03:53:04;43.78;;;39.83;;
25111;SDS011;13092;51.996;4.458;2023-10-09T03:55:34;44.13;;;39.90;;
25111;SDS011;13092;51.996;4.458;2023-10-09T03:58:04;43.92;;;39.72;;
25111;SDS011;13092;51.996;4.458;2023-10-09T04:00:34;45.03;;;41.05;;
25111;SDS011;13092;51.996;4.458;2023-10-09T04:03:12;46.10;;;41.85;;
25111;SDS011;13092;51.996;4.458;2023-10-09T04:05:41;45.42;;;41.08;;
25111;SDS011;13092;51.996;4.458;2023-10-09T04:08:12;46.00;;;41.53;;
25111;SDS011;13092;51.996;4.458;2023-10-09T04:10:46;45.65;;;40.78;;
25111;SDS011;13092;51.996;4.458;2023-10-09T04:13:31;45.42;;;40.92;;
25111;SDS011;13092;51.996;4.458;2023-10-09T04:16:03;43.08;;;39.45;;
25111;SDS011;13092;51.996;4.458;2023-10-09T04:18:46;43.58;;;39.40;;
25111;SDS011;13092;51.996;4.458;2023-10-09T04:21:16;43.17;;;39.35;;
25111;SDS011;13092;51.996;4.458;2023-10-09T04:23:46;41.85;;;38.05;;
25111;SDS011;13092;51.996;4.458;2023-10-09T04:26:36;42.58;;;38.85;;
25111;SDS011;13092;51.996;4.458;2023-10-09T04:29:06;41.92;;;38.53;;
25111;SDS011;13092;51.996;4.458;2023-10-09T04:31:38;42.63;;;38.72;;
25111;SDS011;13092;51.996;4.458;2023-10-09T04:34:07;43.38;;;39.47;;
25111;SDS011;13092;51.996;4.458;2023-10-09T04:36:55;43.40;;;39.80;;
25111;SDS011;13092;51.996;4.458;2023-10-09T04:39:43;44.47;;;40.58;;
25111;SDS011;13092;51.996;4.458;2023-10-09T04:42:14;44.42;;;40.25;;
25111;SDS011;13092;51.996;4.458;2023-10-09T04:45:04;45.17;;;41.08;;
25111;SDS011;13092;51.996;4.458;2023-10-09T04:48:04;46.03;;;41.85;;
25111;SDS011;13092;51.996;4.458;2023-10-09T04:50:35;45.05;;;40.88;;
25111;SDS011;13092;51.996;4.458;2023-10-09T04:53:15;44.97;;;40.80;;
25111;SDS011;13092;51.996;4.458;2023-10-09T04:55:51;43.75;;;39.75;;
25111;SDS011;13092;51.996;4.458;2023-10-09T04:58:24;42.88;;;39.08;;
25111;SDS011;13092;51.996;4.458;2023-10-09T05:00:52;42.85;;;38.85;;
25111;SDS011;13092;51.996;4.458;2023-10-09T05:03:41;42.97;;;39.05;;
25111;SDS011;13092;51.996;4.458;2023-10-09T05:06:19;42.47;;;38.65;;
25111;SDS011;13092;51.996;4.458;2023-10-09T05:09:04;42.50;;;38.40;;
25111;SDS011;13092;51.996;4.458;2023-10-09T05:11:35;43.05;;;39.15;;
25111;SDS011;13092;51.996;4.458;2023-10-09T05:14:20;42.53;;;38.42;;
25111;SDS011;13092;51.996;4.458;2023-10-09T05:17:05;42.50;;;38.17;;
25111;SDS011;13092;51.996;4.458;2023-10-09T05:19:34;41.00;;;37.22;;
25111;SDS011;13092;51.996;4.458;2023-10-09T05:22:20;39.95;;;36.45;;
25111;SDS011;13092;51.996;4.458;2023-10-09T05:25:03;40.35;;;36.95;;
25111;SDS011;13092;51.996;4.458;2023-10-09T05:27:42;40.42;;;36.92;;
25111;SDS011;13092;51.996;4.458;2023-10-09T05:30:17;39.50;;;36.08;;
25111;SDS011;13092;51.996;4.458;2023-10-09T05:33:00;39.42;;;35.80;;
25111;SDS011;13092;51.996;4.458;2023-10-09T05:35:43;39.63;;;36.10;;
25111;SDS011;13092;51.996;4.458;2023-10-09T05:38:32;39.90;;;36.08;;
25111;SDS011;13092;51.996;4.458;2023-10-09T05:41:02;41.35;;;37.10;;
25111;SDS011;13092;51.996;4.458;2023-10-09T05:43:44;39.80;;;36.15;;
25111;SDS011;13092;51.996;4.458;2023-10-09T05:46:30;41.00;;;37.33;;
25111;SDS011;13092;51.996;4.458;2023-10-09T05:49:14;41.33;;;37.60;;
25111;SDS011;13092;51.996;4.458;2023-10-09T05:51:48;41.28;;;37.60;;
25111;SDS011;13092;51.996;4.458;2023-10-09T05:54:40;41.60;;;37.38;;
25111;SDS011;13092;51.996;4.458;2023-10-09T05:57:26;41.38;;;37.58;;
25111;SDS011;13092;51.996;4.458;2023-10-09T06:00:14;42.08;;;37.95;;
25111;SDS011;13092;51.996;4.458;2023-10-09T06:03:00;40.75;;;37.08;;
25111;SDS011;13092;51.996;4.458;2023-10-09T06:05:51;42.70;;;38.83;;
25111;SDS011;13092;51.996;4.458;2023-10-09T06:08:32;41.20;;;37.45;;
25111;SDS011;13092;51.996;4.458;2023-10-09T06:11:35;40.58;;;37.03;;
25111;SDS011;13092;51.996;4.458;2023-10-09T06:14:05;41.35;;;37.45;;
25111;SDS011;13092;51.996;4.458;2023-10-09T06:16:41;42.20;;;38.38;;
25111;SDS011;13092;51.996;4.458;2023-10-09T06:19:09;41.47;;;37.70;;
25111;SDS011;13092;51.996;4.458;2023-10-09T06:21:53;42.53;;;38.40;;
25111;SDS011;13092;51.996;4.458;2023-10-09T06:25:07;43.25;;;39.17;;
25111;SDS011;13092;51.996;4.458;2023-10-09T06:27:39;43.15;;;39.03;;
25111;SDS011;13092;51.996;4.458;2023-10-09T06:30:28;41.47;;;37.92;;
25111;SDS011;13092;51.996;4.458;2023-10-09T06:33:01;42.05;;;38.25;;
25111;SDS011;13092;51.996;4.458;2023-10-09T06:35:46;43.50;;;39.30;;
25111;SDS011;13092;51.996;4.458;2023-10-09T06:38:34;43.00;;;39.03;;
25111;SDS011;13092;51.996;4.458;2023-10-09T06:41:20;41.85;;;37.97;;
25111;SDS011;13092;51.996;4.458;2023-10-09T06:44:04;44.20;;;40.10;;
25111;SDS011;13092;51.996;4.458;2023-10-09T06:46:33;42.95;;;38.95;;
25111;SDS011;13092;51.996;4.458;2023-10-09T06:49:19;42.53;;;38.50;;
25111;SDS011;13092;51.996;4.458;2023-10-09T06:52:02;41.85;;;38.15;;
25111;SDS011;13092;51.996;4.458;2023-10-09T06:54:42;41.40;;;37.72;;
25111;SDS011;13092;51.996;4.458;2023-10-09T06:57:18;41.00;;;37.30;;
25111;SDS011;13092;51.996;4.458;2023-10-09T07:00:15;41.78;;;37.85;;
25111;SDS011;13092;51.996;4.458;2023-10-09T07:03:01;42.97;;;38.97;;
25111;SDS011;13092;51.996;4.458;2023-10-09T07:05:38;42.42;;;38.72;;
25111;SDS011;13092;51.996;4.458;2023-10-09T07:08:26;43.50;;;39.20;;
25111;SDS011;13092;51.996;4.458;2023-10-09T07:11:03;42.30;;;38.42;;
25111;SDS011;13092;51.996;4.458;2023-10-09T07:14:14;42.92;;;39.13;;
25111;SDS011;13092;51.996;4.458;2023-10-09T07:17:00;43.03;;;38.88;;
25111;SDS011;13092;51.996;4.458;2023-10-09T07:19:31;42.92;;;39.13;;
25111;SDS011;13092;51.996;4.458;2023-10-09T07:22:22;44.42;;;40.22;;
25111;SDS011;13092;51.996;4.458;2023-10-09T07:24:56;43.30;;;39.33;;
25111;SDS011;13092;51.996;4.458;2023-10-09T07:27:26;43.95;;;39.78;;
25111;SDS011;13092;51.996;4.458;2023-10-09T07:40:56;42.72;;;38.53;;
25111;SDS011;13092;51.996;4.458;2023-10-09T07:43:51;42.53;;;38.53;;
25111;SDS011;13092;51.996;4.458;2023-10-09T07:46:23;42.72;;;38.70;;
25111;SDS011;13092;51.996;4.458;2023-10-09T07:49:55;43.47;;;39.00;;
25111;SDS011;13092;51.996;4.458;2023-10-09T07:52:51;42.20;;;38.10;;
25111;SDS011;13092;51.996;4.458;2023-10-09T07:55:39;43.00;;;38.35;;
25111;SDS011;13092;51.996;4.458;2023-10-09T07:58:17;41.72;;;37.47;;
25111;SDS011;13092;51.996;4.458;2023-10-09T08:00:52;42.67;;;38.47;;
25111;SDS011;13092;51.996;4.458;2023-10-09T08:03:40;42.30;;;38.08;;
25111;SDS011;13092;51.996;4.458;2023-10-09T08:06:15;42.45;;;38.10;;
25111;SDS011;13092;51.996;4.458;2023-10-09T08:09:01;42.70;;;38.50;;
25111;SDS011;13092;51.996;4.458;2023-10-09T08:11:52;41.50;;;37.67;;
25111;SDS011;13092;51.996;4.458;2023-10-09T08:14:39;42.08;;;37.97;;
25111;SDS011;13092;51.996;4.458;2023-10-09T08:17:12;42.20;;;37.83;;
25111;SDS011;13092;51.996;4.458;2023-10-09T08:19:47;41.90;;;38.00;;
25111;SDS011;13092;51.996;4.458;2023-10-09T08:22:25;42.50;;;38.20;;
25111;SDS011;13092;51.996;4.458;2023-10-09T08:25:20;41.25;;;37.47;;
25111;SDS011;13092;51.996;4.458;2023-10-09T08:27:55;41.97;;;37.80;;
25111;SDS011;13092;51.996;4.458;2023-10-09T08:30:25;40.63;;;36.70;;
25111;SDS011;13092;51.996;4.458;2023-10-09T08:33:07;41.95;;;38.05;;
25111;SDS011;13092;51.996;4.458;2023-10-09T08:35:55;41.72;;;37.67;;
25111;SDS011;13092;51.996;4.458;2023-10-09T08:38:31;41.80;;;37.78;;
25111;SDS011;13092;51.996;4.458;2023-10-09T08:41:06;42.30;;;37.75;;
25111;SDS011;13092;51.996;4.458;2023-10-09T08:43:49;41.38;;;37.67;;
25111;SDS011;13092;51.996;4.458;2023-10-09T08:46:22;42.53;;;38.40;;
25111;SDS011;13092;51.996;4.458;2023-10-09T08:48:54;41.88;;;37.75;;
25111;SDS011;13092;51.996;4.458;2023-10-09T08:51:23;41.58;;;37.88;;
25111;SDS011;13092;51.996;4.458;2023-10-09T08:53:53;41.22;;;37.65;;
25111;SDS011;13092;51.996;4.458;2023-10-09T08:56:21;42.67;;;38.47;;
25111;SDS011;13092;51.996;4.458;2023-10-09T08:58:50;41.85;;;38.08;;
25111;SDS011;13092;51.996;4.458;2023-10-09T09:01:21;41.30;;;37.80;;
25111;SDS011;13092;51.996;4.458;2023-10-09T09:03:52;41.28;;;37.88;;
25111;SDS011;13092;51.996;4.458;2023-10-09T09:06:22;40.78;;;37.47;;
25111;SDS011;13092;51.996;4.458;2023-10-09T09:08:51;39.90;;;36.67;;
25111;SDS011;13092;51.996;4.458;2023-10-09T09:11:26;40.38;;;37.15;;
25111;SDS011;13092;51.996;4.458;2023-10-09T09:14:02;42.35;;;38.80;;
25111;SDS011;13092;51.996;4.458;2023-10-09T09:16:35;42.45;;;38.80;;
25111;SDS011;13092;51.996;4.458;2023-10-09T09:19:11;43.25;;;39.28;;
25111;SDS011;13092;51.996;4.458;2023-10-09T09:21:48;43.90;;;39.53;;
25111;SDS011;13092;51.996;4.458;2023-10-09T09:24:21;43.40;;;39.35;;
25111;SDS011;13092;51.996;4.458;2023-10-09T09:27:00;43.90;;;40.20;;
25111;SDS011;13092;51.996;4.458;2023-10-09T09:29:40;42.42;;;38.78;;
25111;SDS011;13092;51.996;4.458;2023-10-09T09:32:28;43.90;;;39.92;;
25111;SDS011;13092;51.996;4.458;2023-10-09T09:35:03;43.08;;;39.30;;
25111;SDS011;13092;51.996;4.458;2023-10-09T09:37:32;44.28;;;40.60;;
25111;SDS011;13092;51.996;4.458;2023-10-09T09:40:17;44.63;;;40.72;;
25111;SDS011;13092;51.996;4.458;2023-10-09T09:43:01;44.55;;;40.75;;
25111;SDS011;13092;51.996;4.458;2023-10-09T09:45:34;45.30;;;41.38;;
25111;SDS011;13092;51.996;4.458;2023-10-09T09:48:05;44.78;;;41.15;;
25111;SDS011;13092;51.996;4.458;2023-10-09T09:50:37;44.50;;;40.70;;
25111;SDS011;13092;51.996;4.458;2023-10-09T09:53:10;45.30;;;41.75;;
25111;SDS011;13092;51.996;4.458;2023-10-09T09:55:45;45.05;;;41.33;;
25111;SDS011;13092;51.996;4.458;2023-10-09T09:58:18;45.60;;;42.00;;
25111;SDS011;13092;51.996;4.458;2023-10-09T10:00:50;47.20;;;43.20;;
25111;SDS011;13092;51.996;4.458;2023-10-09T10:03:24;46.75;;;42.97;;
25111;SDS011;13092;51.996;4.458;2023-10-09T10:05:55;47.13;;;43.17;;
25111;SDS011;13092;51.996;4.458;2023-10-09T10:08:24;47.20;;;43.30;;
25111;SDS011;13092;51.996;4.458;2023-10-09T10:10:58;48.83;;;44.63;;
25111;SDS011;13092;51.996;4.458;2023-10-09T10:16:26;48.42;;;44.17;;
25111;SDS011;13092;51.996;4.458;2023-10-09T10:19:03;47.67;;;43.55;;
25111;SDS011;13092;51.996;4.458;2023-10-09T10:21:48;47.78;;;43.40;;
25111;SDS011;13092;51.996;4.458;2023-10-09T10:27:21;49.65;;;45.28;;
25111;SDS011;13092;51.996;4.458;2023-10-09T10:33:03;48.47;;;44.05;;
25111;SDS011;13092;51.996;4.458;2023-10-09T10:35:40;49.13;;;44.78;;
25111;SDS011;13092;51.996;4.458;2023-10-09T10:38:23;48.53;;;44.28;;
25111;SDS011;13092;51.996;4.458;2023-10-09T10:41:09;49.80;;;45.30;;
25111;SDS011;13092;51.996;4.458;2023-10-09T10:43:40;50.75;;;46.38;;
25111;SDS011;13092;51.996;4.458;2023-10-09T10:46:22;50.45;;;45.95;;
25111;SDS011;13092;51.996;4.458;2023-10-09T10:49:05;50.35;;;45.92;;
25111;SDS011;13092;51.996;4.458;2023-10-09T10:51:49;51.15;;;46.75;;
25111;SDS011;13092;51.996;4.458;2023-10-09T10:54:28;50.90;;;46.63;;
25111;SDS011;13092;51.996;4.458;2023-10-09T10:57:35;52.58;;;47.75;;
25111;SDS011;13092;51.996;4.458;2023-10-09T11:00:20;51.63;;;47.00;;
25111;SDS011;13092;51.996;4.458;2023-10-09T11:03:06;50.88;;;46.50;;
25111;SDS011;13092;51.996;4.458;2023-10-09T11:05:46;53.33;;;48.42;;
25111;SDS011;13092;51.996;4.458;2023-10-09T11:08:23;52.25;;;47.35;;
25111;SDS011;13092;51.996;4.458;2023-10-09T11:11:11;52.42;;;47.55;;
25111;SDS011;13092;51.996;4.458;2023-10-09T11:13:42;52.47;;;47.67;;
25111;SDS011;13092;51.996;4.458;2023-10-09T11:16:24;53.90;;;49.15;;
25111;SDS011;13092;51.996;4.458;2023-10-09T11:19:10;52.95;;;48.45;;
25111;SDS011;13092;51.996;4.458;2023-10-09T11:21:55;54.20;;;49.50;;
25111;SDS011;13092;51.996;4.458;2023-10-09T11:24:43;52.30;;;47.70;;
25111;SDS011;13092;51.996;4.458;2023-10-09T11:27:13;54.67;;;49.83;;
25111;SDS011;13092;51.996;4.458;2023-10-09T11:29:51;54.63;;;49.95;;
25111;SDS011;13092;51.996;4.458;2023-10-09T11:32:32;54.08;;;49.28;;
25111;SDS011;13092;51.996;4.458;2023-10-09T11:35:11;54.30;;;49.50;;
25111;SDS011;13092;51.996;4.458;2023-10-09T11:37:54;54.60;;;49.83;;
25111;SDS011;13092;51.996;4.458;2023-10-09T11:40:30;54.75;;;49.95;;
25111;SDS011;13092;51.996;4.458;2023-10-09T11:43:16;56.25;;;51.45;;
25111;SDS011;13092;51.996;4.458;2023-10-09T11:45:43;57.45;;;52.50;;
25111;SDS011;13092;51.996;4.458;2023-10-09T11:48:21;57.35;;;52.40;;
25111;SDS011;13092;51.996;4.458;2023-10-09T11:50:51;57.15;;;52.08;;
25111;SDS011;13092;51.996;4.458;2023-10-09T11:53:23;57.70;;;52.58;;
25111;SDS011;13092;51.996;4.458;2023-10-09T11:56:04;57.40;;;52.42;;
25111;SDS011;13092;51.996;4.458;2023-10-09T11:58:36;57.97;;;52.70;;
25111;SDS011;13092;51.996;4.458;2023-10-09T12:01:10;56.10;;;51.28;;
25111;SDS011;13092;51.996;4.458;2023-10-09T12:03:44;56.75;;;51.95;;
25111;SDS011;13092;51.996;4.458;2023-10-09T12:06:16;56.80;;;51.50;;
25111;SDS011;13092;51.996;4.458;2023-10-09T12:08:48;55.22;;;50.33;;
25111;SDS011;13092;51.996;4.458;2023-10-09T12:11:18;57.35;;;52.10;;
25111;SDS011;13092;51.996;4.458;2023-10-09T12:13:55;57.08;;;52.00;;
25111;SDS011;13092;51.996;4.458;2023-10-09T12:16:24;57.53;;;52.22;;
25111;SDS011;13092;51.996;4.458;2023-10-09T12:18:55;57.85;;;52.45;;
25111;SDS011;13092;51.996;4.458;2023-10-09T12:21:23;56.45;;;51.28;;
25111;SDS011;13092;51.996;4.458;2023-10-09T12:23:55;57.88;;;52.67;;
25111;SDS011;13092;51.996;4.458;2023-10-09T12:26:29;56.00;;;51.30;;
25111;SDS011;13092;51.996;4.458;2023-10-09T12:29:01;56.33;;;51.20;;
25111;SDS011;13092;51.996;4.458;2023-10-09T12:31:30;56.15;;;50.88;;
25111;SDS011;13092;51.996;4.458;2023-10-09T12:34:00;54.55;;;49.72;;
25111;SDS011;13092;51.996;4.458;2023-10-09T12:36:29;56.80;;;51.72;;
25111;SDS011;13092;51.996;4.458;2023-10-09T12:39:04;55.58;;;50.58;;
25111;SDS011;13092;51.996;4.458;2023-10-09T12:41:35;57.00;;;51.70;;
25111;SDS011;13092;51.996;4.458;2023-10-09T12:44:07;56.15;;;50.92;;
25111;SDS011;13092;51.996;4.458;2023-10-09T12:46:41;56.65;;;51.45;;
25111;SDS011;13092;51.996;4.458;2023-10-09T12:49:18;57.08;;;51.88;;
25111;SDS011;13092;51.996;4.458;2023-10-09T12:51:51;57.75;;;52.25;;
25111;SDS011;13092;51.996;4.458;2023-10-09T12:54:19;59.13;;;53.83;;
25111;SDS011;13092;51.996;4.458;2023-10-09T12:56:55;58.75;;;53.28;;
25111;SDS011;13092;51.996;4.458;2023-10-09T12:59:24;58.78;;;53.15;;
25111;SDS011;13092;51.996;4.458;2023-10-09T13:01:52;59.83;;;54.20;;
25111;SDS011;13092;51.996;4.458;2023-10-09T13:04:24;60.58;;;54.83;;
25111;SDS011;13092;51.996;4.458;2023-10-09T13:06:58;57.30;;;52.17;;
25111;SDS011;13092;51.996;4.458;2023-10-09T13:09:30;56.88;;;51.50;;
25111;SDS011;13092;51.996;4.458;2023-10-09T13:12:04;58.05;;;52.83;;
25111;SDS011;13092;51.996;4.458;2023-10-09T13:14:35;59.33;;;53.83;;
25111;SDS011;13092;51.996;4.458;2023-10-09T13:17:06;57.78;;;52.63;;
25111;SDS011;13092;51.996;4.458;2023-10-09T13:19:37;57.28;;;51.97;;
25111;SDS011;13092;51.996;4.458;2023-10-09T13:22:05;56.85;;;51.65;;
25111;SDS011;13092;51.996;4.458;2023-10-09T13:24:39;57.38;;;52.03;;
25111;SDS011;13092;51.996;4.458;2023-10-09T13:27:09;56.65;;;51.75;;
25111;SDS011;13092;51.996;4.458;2023-10-09T13:29:37;57.85;;;52.47;;
25111;SDS011;13092;51.996;4.458;2023-10-09T13:32:07;59.22;;;53.42;;
25111;SDS011;13092;51.996;4.458;2023-10-09T13:34:41;58.75;;;53.13;;
25111;SDS011;13092;51.996;4.458;2023-10-09T13:37:11;57.17;;;51.85;;
25111;SDS011;13092;51.996;4.458;2023-10-09T13:39:40;58.33;;;53.30;;
25111;SDS011;13092;51.996;4.458;2023-10-09T13:42:20;58.35;;;53.20;;
25111;SDS011;13092;51.996;4.458;2023-10-09T13:44:51;57.50;;;52.20;;
25111;SDS011;13092;51.996;4.458;2023-10-09T13:47:21;59.35;;;54.15;;
25111;SDS011;13092;51.996;4.458;2023-10-09T13:49:56;61.40;;;55.72;;
25111;SDS011;13092;51.996;4.458;2023-10-09T13:52:26;59.78;;;54.17;;
25111;SDS011;13092;51.996;4.458;2023-10-09T13:54:54;59.13;;;53.78;;
25111;SDS011;13092;51.996;4.458;2023-10-09T13:57:26;59.03;;;53.47;;
25111;SDS011;13092;51.996;4.458;2023-10-09T13:59:58;59.92;;;54.50;;
25111;SDS011;13092;51.996;4.458;2023-10-09T14:02:27;60.40;;;54.45;;
25111;SDS011;13092;51.996;4.458;2023-10-09T14:04:55;61.03;;;55.22;;
25111;SDS011;13092;51.996;4.458;2023-10-09T14:07:27;60.45;;;54.75;;
25111;SDS011;13092;51.996;4.458;2023-10-09T14:09:55;60.80;;;55.40;;
25111;SDS011;13092;51.996;4.458;2023-10-09T14:12:35;61.65;;;55.40;;
25111;SDS011;13092;51.996;4.458;2023-10-09T14:15:07;59.70;;;54.20;;
25111;SDS011;13092;51.996;4.458;2023-10-09T14:17:40;60.22;;;54.60;;
25111;SDS011;13092;51.996;4.458;2023-10-09T14:20:09;61.50;;;55.50;;
25111;SDS011;13092;51.996;4.458;2023-10-09T14:33:34;59.75;;;54.03;;
25111;SDS011;13092;51.996;4.458;2023-10-09T14:36:03;60.88;;;55.17;;
25111;SDS011;13092;51.996;4.458;2023-10-09T14:38:34;60.83;;;55.25;;
25111;SDS011;13092;51.996;4.458;2023-10-09T14:41:06;62.05;;;56.15;;
25111;SDS011;13092;51.996;4.458;2023-10-09T14:43:38;61.17;;;55.28;;
25111;SDS011;13092;51.996;4.458;2023-10-09T14:46:12;59.67;;;54.20;;
25111;SDS011;13092;51.996;4.458;2023-10-09T14:48:42;60.65;;;54.72;;
25111;SDS011;13092;51.996;4.458;2023-10-09T14:51:13;59.30;;;53.72;;
25111;SDS011;13092;51.996;4.458;2023-10-09T14:53:41;58.83;;;53.33;;
25111;SDS011;13092;51.996;4.458;2023-10-09T14:56:10;58.70;;;52.90;;
25111;SDS011;13092;51.996;4.458;2023-10-09T14:58:42;58.55;;;53.15;;
25111;SDS011;13092;51.996;4.458;2023-10-09T15:01:13;57.80;;;52.03;;
25111;SDS011;13092;51.996;4.458;2023-10-09T15:03:47;56.75;;;51.05;;
25111;SDS011;13092;51.996;4.458;2023-10-09T15:06:19;57.17;;;51.40;;
25111;SDS011;13092;51.996;4.458;2023-10-09T15:08:49;56.95;;;51.17;;
25111;SDS011;13092;51.996;4.458;2023-10-09T15:11:21;56.72;;;51.13;;
25111;SDS011;13092;51.996;4.458;2023-10-09T15:13:51;56.65;;;51.08;;
25111;SDS011;13092;51.996;4.458;2023-10-09T15:16:24;56.83;;;51.22;;
25111;SDS011;13092;51.996;4.458;2023-10-09T15:18:57;56.22;;;50.53;;
25111;SDS011;13092;51.996;4.458;2023-10-09T15:21:28;56.85;;;51.35;;
25111;SDS011;13092;51.996;4.458;2023-10-09T15:23:58;55.67;;;50.00;;
25111;SDS011;13092;51.996;4.458;2023-10-09T15:26:27;54.67;;;48.92;;
25111;SDS011;13092;51.996;4.458;2023-10-09T15:29:00;55.53;;;49.92;;
25111;SDS011;13092;51.996;4.458;2023-10-09T15:31:33;53.88;;;48.20;;
25111;SDS011;13092;51.996;4.458;2023-10-09T15:34:02;53.40;;;47.85;;
25111;SDS011;13092;51.996;4.458;2023-10-09T15:36:35;53.13;;;47.58;;
25111;SDS011;13092;51.996;4.458;2023-10-09T15:39:04;52.80;;;47.47;;
25111;SDS011;13092;51.996;4.458;2023-10-09T15:41:34;53.33;;;48.08;;